sensor_id;sensor_type;location;lat;lon;timestamp;P1;durP1;ratioP1;P2;durP2;ratioP2
24337;SDS011;12457;50.832;4.346;2023-05-17T00:01:35;15.88;;;4.47;;
24337;SDS011;12457;50.832;4.346;2023-05-17T00:04:01;14.07;;;4.18;;
24337;SDS011;12457;50.832;4.346;2023-05-17T00:06:26;18.05;;;4.35;;
24337;SDS011;12457;50.832;4.346;2023-05-17T00:12:14;16.45;;;5.55;;
24337;SDS011;12457;50.832;4.346;2023-05-17T00:14:40;11.88;;;3.85;;
24337;SDS011;12457;50.832;4.346;2023-05-17T00:17:06;15.55;;;4.78;;
24337;SDS011;12457;50.832;4.346;2023-05-17T00:19:32;25.25;;;7.05;;
24337;SDS011;12457;50.832;4.346;2023-05-17T00:21:58;20.60;;;4.50;;
24337;SDS011;12457;50.832;4.346;2023-05-17T00:24:23;24.75;;;5.95;;
24337;SDS011;12457;50.832;4.346;2023-05-17T00:26:50;20.77;;;5.55;;
24337;SDS011;12457;50.832;4.346;2023-05-17T00:29:16;17.30;;;5.30;;
24337;SDS011;12457;50.832;4.346;2023-05-17T00:31:43;18.20;;;5.50;;
24337;SDS011;12457;50.832;4.346;2023-05-17T00:34:10;22.40;;;5.30;;
24337;SDS011;12457;50.832;4.346;2023-05-17T00:36:36;16.05;;;5.03;;
24337;SDS011;12457;50.832;4.346;2023-05-17T00:39:11;17.17;;;5.53;;
24337;SDS011;12457;50.832;4.346;2023-05-17T00:41:37;19.73;;;5.57;;
24337;SDS011;12457;50.832;4.346;2023-05-17T00:44:03;24.27;;;6.00;;
24337;SDS011;12457;50.832;4.346;2023-05-17T00:46:29;16.33;;;5.85;;
24337;SDS011;12457;50.832;4.346;2023-05-17T00:48:57;17.23;;;5.45;;
24337;SDS011;12457;50.832;4.346;2023-05-17T00:51:23;18.52;;;5.75;;
24337;SDS011;12457;50.832;4.346;2023-05-17T00:53:49;16.15;;;5.65;;
24337;SDS011;12457;50.832;4.346;2023-05-17T00:56:15;21.88;;;6.13;;
24337;SDS011;12457;50.832;4.346;2023-05-17T00:58:41;19.45;;;6.68;;
24337;SDS011;12457;50.832;4.346;2023-05-17T01:01:06;22.00;;;6.65;;
24337;SDS011;12457;50.832;4.346;2023-05-17T01:03:32;23.50;;;7.32;;
24337;SDS011;12457;50.832;4.346;2023-05-17T01:05:58;18.15;;;5.55;;
24337;SDS011;12457;50.832;4.346;2023-05-17T01:08:26;21.40;;;6.43;;
24337;SDS011;12457;50.832;4.346;2023-05-17T01:13:34;14.25;;;5.03;;
24337;SDS011;12457;50.832;4.346;2023-05-17T01:29:40;25.90;;;7.55;;
24337;SDS011;12457;50.832;4.346;2023-05-17T01:32:08;15.00;;;6.95;;
24337;SDS011;12457;50.832;4.346;2023-05-17T01:34:36;15.77;;;6.00;;
24337;SDS011;12457;50.832;4.346;2023-05-17T01:37:03;18.23;;;7.47;;
24337;SDS011;12457;50.832;4.346;2023-05-17T01:39:34;18.55;;;6.65;;
24337;SDS011;12457;50.832;4.346;2023-05-17T01:42:08;19.60;;;6.40;;
24337;SDS011;12457;50.832;4.346;2023-05-17T01:44:48;22.73;;;6.75;;
24337;SDS011;12457;50.832;4.346;2023-05-17T01:47:32;26.60;;;6.93;;
24337;SDS011;12457;50.832;4.346;2023-05-17T01:50:01;22.00;;;7.82;;
24337;SDS011;12457;50.832;4.346;2023-05-17T01:52:34;16.88;;;6.88;;
24337;SDS011;12457;50.832;4.346;2023-05-17T01:55:09;19.67;;;6.70;;
24337;SDS011;12457;50.832;4.346;2023-05-17T01:58:00;23.08;;;6.60;;
24337;SDS011;12457;50.832;4.346;2023-05-17T02:00:30;18.55;;;6.97;;
24337;SDS011;12457;50.832;4.346;2023-05-17T02:02:56;19.58;;;6.75;;
24337;SDS011;12457;50.832;4.346;2023-05-17T02:05:22;16.80;;;5.75;;
24337;SDS011;12457;50.832;4.346;2023-05-17T02:07:47;19.38;;;6.10;;
24337;SDS011;12457;50.832;4.346;2023-05-17T02:10:18;17.27;;;5.93;;
24337;SDS011;12457;50.832;4.346;2023-05-17T02:12:44;22.50;;;6.53;;
24337;SDS011;12457;50.832;4.346;2023-05-17T02:15:10;21.08;;;7.20;;
24337;SDS011;12457;50.832;4.346;2023-05-17T02:17:38;19.20;;;7.18;;
24337;SDS011;12457;50.832;4.346;2023-05-17T02:20:05;22.88;;;7.25;;
24337;SDS011;12457;50.832;4.346;2023-05-17T02:22:33;31.38;;;7.30;;
24337;SDS011;12457;50.832;4.346;2023-05-17T02:24:59;24.00;;;7.90;;
24337;SDS011;12457;50.832;4.346;2023-05-17T02:27:24;19.40;;;7.72;;
24337;SDS011;12457;50.832;4.346;2023-05-17T02:29:50;23.98;;;8.15;;
24337;SDS011;12457;50.832;4.346;2023-05-17T02:32:16;18.75;;;8.15;;
24337;SDS011;12457;50.832;4.346;2023-05-17T02:34:42;22.05;;;8.00;;
24337;SDS011;12457;50.832;4.346;2023-05-17T02:37:07;20.95;;;7.82;;
24337;SDS011;12457;50.832;4.346;2023-05-17T02:39:38;20.58;;;7.60;;
24337;SDS011;12457;50.832;4.346;2023-05-17T02:42:04;24.00;;;7.97;;
24337;SDS011;12457;50.832;4.346;2023-05-17T02:44:30;19.92;;;8.07;;
24337;SDS011;12457;50.832;4.346;2023-05-17T02:46:55;20.05;;;7.75;;
24337;SDS011;12457;50.832;4.346;2023-05-17T02:49:22;17.80;;;7.72;;
24337;SDS011;12457;50.832;4.346;2023-05-17T02:51:48;29.33;;;8.98;;
24337;SDS011;12457;50.832;4.346;2023-05-17T02:54:13;23.40;;;8.02;;
24337;SDS011;12457;50.832;4.346;2023-05-17T02:56:39;22.40;;;7.70;;
24337;SDS011;12457;50.832;4.346;2023-05-17T02:59:05;18.02;;;8.10;;
24337;SDS011;12457;50.832;4.346;2023-05-17T03:01:31;20.42;;;8.20;;
24337;SDS011;12457;50.832;4.346;2023-05-17T03:03:57;27.02;;;8.57;;
24337;SDS011;12457;50.832;4.346;2023-05-17T03:06:23;37.03;;;9.20;;
24337;SDS011;12457;50.832;4.346;2023-05-17T03:08:49;18.73;;;8.02;;
24337;SDS011;12457;50.832;4.346;2023-05-17T03:11:15;32.10;;;8.90;;
24337;SDS011;12457;50.832;4.346;2023-05-17T03:13:42;25.30;;;8.65;;
24337;SDS011;12457;50.832;4.346;2023-05-17T03:16:10;23.67;;;8.65;;
24337;SDS011;12457;50.832;4.346;2023-05-17T03:18:36;23.13;;;8.82;;
24337;SDS011;12457;50.832;4.346;2023-05-17T03:21:02;29.63;;;8.48;;
24337;SDS011;12457;50.832;4.346;2023-05-17T03:23:27;27.17;;;8.82;;
24337;SDS011;12457;50.832;4.346;2023-05-17T03:25:53;27.02;;;9.02;;
24337;SDS011;12457;50.832;4.346;2023-05-17T03:28:19;25.65;;;8.80;;
24337;SDS011;12457;50.832;4.346;2023-05-17T03:30:46;26.13;;;8.52;;
24337;SDS011;12457;50.832;4.346;2023-05-17T03:33:12;28.65;;;8.85;;
24337;SDS011;12457;50.832;4.346;2023-05-17T03:35:38;32.00;;;8.82;;
24337;SDS011;12457;50.832;4.346;2023-05-17T03:38:04;24.73;;;9.60;;
24337;SDS011;12457;50.832;4.346;2023-05-17T03:40:31;30.60;;;9.77;;
24337;SDS011;12457;50.832;4.346;2023-05-17T03:42:57;27.77;;;10.07;;
24337;SDS011;12457;50.832;4.346;2023-05-17T03:45:22;25.13;;;10.43;;
24337;SDS011;12457;50.832;4.346;2023-05-17T03:47:48;28.60;;;9.70;;
24337;SDS011;12457;50.832;4.346;2023-05-17T03:50:14;25.13;;;9.48;;
24337;SDS011;12457;50.832;4.346;2023-05-17T03:52:40;24.40;;;8.82;;
24337;SDS011;12457;50.832;4.346;2023-05-17T03:55:06;40.33;;;10.00;;
24337;SDS011;12457;50.832;4.346;2023-05-17T03:57:37;32.83;;;9.77;;
24337;SDS011;12457;50.832;4.346;2023-05-17T04:00:03;24.67;;;8.98;;
24337;SDS011;12457;50.832;4.346;2023-05-17T04:02:45;26.27;;;9.40;;
24337;SDS011;12457;50.832;4.346;2023-05-17T04:05:10;28.90;;;10.70;;
24337;SDS011;12457;50.832;4.346;2023-05-17T04:07:37;28.35;;;10.40;;
24337;SDS011;12457;50.832;4.346;2023-05-17T04:10:03;28.80;;;9.73;;
24337;SDS011;12457;50.832;4.346;2023-05-17T04:12:35;21.60;;;9.68;;
24337;SDS011;12457;50.832;4.346;2023-05-17T04:15:02;40.67;;;10.02;;
24337;SDS011;12457;50.832;4.346;2023-05-17T04:17:28;25.05;;;9.57;;
24337;SDS011;12457;50.832;4.346;2023-05-17T04:19:53;25.38;;;9.02;;
24337;SDS011;12457;50.832;4.346;2023-05-17T04:22:19;30.42;;;9.05;;
24337;SDS011;12457;50.832;4.346;2023-05-17T04:24:45;21.95;;;8.85;;
24337;SDS011;12457;50.832;4.346;2023-05-17T04:27:12;25.23;;;9.50;;
24337;SDS011;12457;50.832;4.346;2023-05-17T04:29:38;30.42;;;11.32;;
24337;SDS011;12457;50.832;4.346;2023-05-17T04:32:06;22.67;;;8.63;;
24337;SDS011;12457;50.832;4.346;2023-05-17T04:34:33;27.60;;;9.52;;
24337;SDS011;12457;50.832;4.346;2023-05-17T04:36:58;23.17;;;8.48;;
24337;SDS011;12457;50.832;4.346;2023-05-17T04:39:44;24.42;;;9.27;;
24337;SDS011;12457;50.832;4.346;2023-05-17T04:42:22;23.92;;;9.25;;
24337;SDS011;12457;50.832;4.346;2023-05-17T04:44:47;20.20;;;7.75;;
24337;SDS011;12457;50.832;4.346;2023-05-17T04:47:13;22.08;;;9.93;;
24337;SDS011;12457;50.832;4.346;2023-05-17T04:49:38;24.77;;;8.20;;
24337;SDS011;12457;50.832;4.346;2023-05-17T04:52:05;21.05;;;7.95;;
24337;SDS011;12457;50.832;4.346;2023-05-17T04:54:32;18.33;;;8.35;;
24337;SDS011;12457;50.832;4.346;2023-05-17T04:56:59;17.00;;;8.43;;
24337;SDS011;12457;50.832;4.346;2023-05-17T04:59:25;29.48;;;7.32;;
24337;SDS011;12457;50.832;4.346;2023-05-17T05:01:53;21.95;;;7.78;;
24337;SDS011;12457;50.832;4.346;2023-05-17T05:04:20;13.57;;;7.07;;
24337;SDS011;12457;50.832;4.346;2023-05-17T05:06:45;25.70;;;8.50;;
24337;SDS011;12457;50.832;4.346;2023-05-17T05:09:11;19.50;;;8.18;;
24337;SDS011;12457;50.832;4.346;2023-05-17T05:11:37;15.00;;;7.10;;
24337;SDS011;12457;50.832;4.346;2023-05-17T05:14:02;21.58;;;8.20;;
24337;SDS011;12457;50.832;4.346;2023-05-17T05:16:28;18.45;;;7.55;;
24337;SDS011;12457;50.832;4.346;2023-05-17T05:19:05;21.00;;;8.18;;
24337;SDS011;12457;50.832;4.346;2023-05-17T05:21:33;30.45;;;8.18;;
24337;SDS011;12457;50.832;4.346;2023-05-17T05:23:58;20.80;;;8.15;;
24337;SDS011;12457;50.832;4.346;2023-05-17T05:26:24;20.33;;;8.32;;
24337;SDS011;12457;50.832;4.346;2023-05-17T05:28:49;21.92;;;8.25;;
24337;SDS011;12457;50.832;4.346;2023-05-17T05:31:15;45.80;;;12.27;;
24337;SDS011;12457;50.832;4.346;2023-05-17T05:33:41;37.03;;;9.68;;
24337;SDS011;12457;50.832;4.346;2023-05-17T05:36:07;28.77;;;7.82;;
24337;SDS011;12457;50.832;4.346;2023-05-17T05:38:33;22.08;;;7.82;;
24337;SDS011;12457;50.832;4.346;2023-05-17T05:40:58;21.95;;;7.45;;
24337;SDS011;12457;50.832;4.346;2023-05-17T05:43:43;22.00;;;8.20;;
24337;SDS011;12457;50.832;4.346;2023-05-17T05:46:08;29.33;;;7.18;;
24337;SDS011;12457;50.832;4.346;2023-05-17T05:48:34;23.67;;;7.57;;
24337;SDS011;12457;50.832;4.346;2023-05-17T05:51:03;23.45;;;7.05;;
24337;SDS011;12457;50.832;4.346;2023-05-17T05:53:30;26.45;;;6.60;;
24337;SDS011;12457;50.832;4.346;2023-05-17T05:55:55;24.45;;;7.18;;
24337;SDS011;12457;50.832;4.346;2023-05-17T05:58:21;21.15;;;6.55;;
24337;SDS011;12457;50.832;4.346;2023-05-17T06:00:48;22.50;;;7.07;;
24337;SDS011;12457;50.832;4.346;2023-05-17T06:03:13;18.92;;;6.78;;
24337;SDS011;12457;50.832;4.346;2023-05-17T06:05:40;18.67;;;6.70;;
24337;SDS011;12457;50.832;4.346;2023-05-17T06:08:05;28.02;;;6.80;;
24337;SDS011;12457;50.832;4.346;2023-05-17T06:10:33;21.88;;;6.45;;
24337;SDS011;12457;50.832;4.346;2023-05-17T06:13:06;22.30;;;5.95;;
24337;SDS011;12457;50.832;4.346;2023-05-17T06:15:36;15.98;;;6.28;;
24337;SDS011;12457;50.832;4.346;2023-05-17T06:18:05;16.88;;;6.65;;
24337;SDS011;12457;50.832;4.346;2023-05-17T06:20:30;17.10;;;5.95;;
24337;SDS011;12457;50.832;4.346;2023-05-17T06:22:56;19.25;;;6.22;;
24337;SDS011;12457;50.832;4.346;2023-05-17T06:25:22;18.35;;;5.82;;
24337;SDS011;12457;50.832;4.346;2023-05-17T06:27:53;12.45;;;5.95;;
24337;SDS011;12457;50.832;4.346;2023-05-17T06:30:19;19.60;;;5.57;;
24337;SDS011;12457;50.832;4.346;2023-05-17T06:32:44;19.25;;;6.20;;
24337;SDS011;12457;50.832;4.346;2023-05-17T06:35:10;17.50;;;5.95;;
24337;SDS011;12457;50.832;4.346;2023-05-17T06:37:36;17.48;;;5.32;;
24337;SDS011;12457;50.832;4.346;2023-05-17T06:40:02;17.60;;;5.95;;
24337;SDS011;12457;50.832;4.346;2023-05-17T06:42:30;19.88;;;5.88;;
24337;SDS011;12457;50.832;4.346;2023-05-17T06:44:56;18.08;;;6.65;;
24337;SDS011;12457;50.832;4.346;2023-05-17T06:47:22;19.58;;;6.30;;
24337;SDS011;12457;50.832;4.346;2023-05-17T06:49:47;23.65;;;6.63;;
24337;SDS011;12457;50.832;4.346;2023-05-17T06:52:13;15.98;;;5.63;;
24337;SDS011;12457;50.832;4.346;2023-05-17T06:54:39;20.20;;;6.18;;
24337;SDS011;12457;50.832;4.346;2023-05-17T06:57:05;18.98;;;6.18;;
24337;SDS011;12457;50.832;4.346;2023-05-17T06:59:31;15.90;;;5.30;;
24337;SDS011;12457;50.832;4.346;2023-05-17T07:01:56;20.65;;;4.85;;
24337;SDS011;12457;50.832;4.346;2023-05-17T07:04:24;17.30;;;5.05;;
24337;SDS011;12457;50.832;4.346;2023-05-17T07:06:50;20.25;;;4.35;;
24337;SDS011;12457;50.832;4.346;2023-05-17T07:09:17;16.08;;;4.32;;
24337;SDS011;12457;50.832;4.346;2023-05-17T07:11:44;12.20;;;3.80;;
24337;SDS011;12457;50.832;4.346;2023-05-17T07:14:09;14.48;;;3.80;;
24337;SDS011;12457;50.832;4.346;2023-05-17T07:16:35;16.80;;;3.90;;
24337;SDS011;12457;50.832;4.346;2023-05-17T07:19:01;14.82;;;4.40;;
24337;SDS011;12457;50.832;4.346;2023-05-17T07:21:27;12.55;;;4.03;;
24337;SDS011;12457;50.832;4.346;2023-05-17T07:23:52;13.32;;;4.20;;
24337;SDS011;12457;50.832;4.346;2023-05-17T07:26:18;14.93;;;4.75;;
24337;SDS011;12457;50.832;4.346;2023-05-17T07:28:46;15.13;;;4.63;;
24337;SDS011;12457;50.832;4.346;2023-05-17T07:31:13;13.77;;;4.82;;
24337;SDS011;12457;50.832;4.346;2023-05-17T07:33:38;11.48;;;4.25;;
24337;SDS011;12457;50.832;4.346;2023-05-17T07:36:05;18.23;;;4.50;;
24337;SDS011;12457;50.832;4.346;2023-05-17T07:38:31;15.35;;;4.70;;
24337;SDS011;12457;50.832;4.346;2023-05-17T07:40:59;17.35;;;4.43;;
24337;SDS011;12457;50.832;4.346;2023-05-17T07:43:27;13.23;;;4.85;;
24337;SDS011;12457;50.832;4.346;2023-05-17T07:45:52;17.83;;;4.68;;
24337;SDS011;12457;50.832;4.346;2023-05-17T07:48:19;16.30;;;5.10;;
24337;SDS011;12457;50.832;4.346;2023-05-17T07:50:44;17.45;;;5.20;;
24337;SDS011;12457;50.832;4.346;2023-05-17T07:53:10;15.18;;;5.50;;
24337;SDS011;12457;50.832;4.346;2023-05-17T07:55:41;18.58;;;5.20;;
24337;SDS011;12457;50.832;4.346;2023-05-17T07:58:09;19.08;;;5.53;;
24337;SDS011;12457;50.832;4.346;2023-05-17T08:00:38;18.33;;;5.80;;
24337;SDS011;12457;50.832;4.346;2023-05-17T08:03:06;16.33;;;4.68;;
24337;SDS011;12457;50.832;4.346;2023-05-17T08:05:32;15.25;;;4.90;;
24337;SDS011;12457;50.832;4.346;2023-05-17T08:07:58;12.40;;;5.70;;
24337;SDS011;12457;50.832;4.346;2023-05-17T08:10:25;16.73;;;4.82;;
24337;SDS011;12457;50.832;4.346;2023-05-17T08:12:53;19.67;;;5.30;;
24337;SDS011;12457;50.832;4.346;2023-05-17T08:15:22;10.65;;;4.47;;
24337;SDS011;12457;50.832;4.346;2023-05-17T08:17:47;16.98;;;4.57;;
24337;SDS011;12457;50.832;4.346;2023-05-17T08:20:13;14.52;;;4.63;;
24337;SDS011;12457;50.832;4.346;2023-05-17T08:22:42;14.75;;;4.85;;
24337;SDS011;12457;50.832;4.346;2023-05-17T08:25:08;10.18;;;4.20;;
24337;SDS011;12457;50.832;4.346;2023-05-17T08:27:33;16.65;;;4.57;;
24337;SDS011;12457;50.832;4.346;2023-05-17T08:30:00;12.77;;;3.80;;
24337;SDS011;12457;50.832;4.346;2023-05-17T08:32:26;8.35;;;3.60;;
24337;SDS011;12457;50.832;4.346;2023-05-17T08:34:53;15.88;;;4.38;;
24337;SDS011;12457;50.832;4.346;2023-05-17T08:37:19;14.13;;;3.97;;
24337;SDS011;12457;50.832;4.346;2023-05-17T08:39:45;12.20;;;4.25;;
24337;SDS011;12457;50.832;4.346;2023-05-17T08:42:21;17.77;;;4.10;;
24337;SDS011;12457;50.832;4.346;2023-05-17T08:44:49;12.02;;;3.70;;
24337;SDS011;12457;50.832;4.346;2023-05-17T08:47:16;23.42;;;4.55;;
24337;SDS011;12457;50.832;4.346;2023-05-17T08:49:51;15.15;;;4.97;;
24337;SDS011;12457;50.832;4.346;2023-05-17T08:52:18;18.08;;;4.75;;
24337;SDS011;12457;50.832;4.346;2023-05-17T08:54:46;18.13;;;4.80;;
24337;SDS011;12457;50.832;4.346;2023-05-17T08:57:13;13.48;;;4.15;;
24337;SDS011;12457;50.832;4.346;2023-05-17T08:59:51;14.98;;;4.57;;
24337;SDS011;12457;50.832;4.346;2023-05-17T09:02:19;9.20;;;3.45;;
24337;SDS011;12457;50.832;4.346;2023-05-17T09:04:48;17.98;;;4.07;;
24337;SDS011;12457;50.832;4.346;2023-05-17T09:07:23;10.70;;;4.30;;
24337;SDS011;12457;50.832;4.346;2023-05-17T09:09:49;12.85;;;4.00;;
24337;SDS011;12457;50.832;4.346;2023-05-17T09:12:17;13.68;;;3.78;;
24337;SDS011;12457;50.832;4.346;2023-05-17T09:14:43;15.10;;;3.50;;
24337;SDS011;12457;50.832;4.346;2023-05-17T09:17:12;14.10;;;4.03;;
24337;SDS011;12457;50.832;4.346;2023-05-17T09:19:44;14.95;;;3.22;;
24337;SDS011;12457;50.832;4.346;2023-05-17T09:22:11;9.23;;;3.03;;
24337;SDS011;12457;50.832;4.346;2023-05-17T09:24:43;13.45;;;3.67;;
24337;SDS011;12457;50.832;4.346;2023-05-17T09:27:16;10.73;;;3.05;;
24337;SDS011;12457;50.832;4.346;2023-05-17T09:29:45;14.98;;;3.38;;
24337;SDS011;12457;50.832;4.346;2023-05-17T09:32:16;10.57;;;3.63;;
24337;SDS011;12457;50.832;4.346;2023-05-17T09:34:45;15.38;;;3.50;;
24337;SDS011;12457;50.832;4.346;2023-05-17T09:37:12;13.65;;;3.67;;
24337;SDS011;12457;50.832;4.346;2023-05-17T09:39:40;9.65;;;2.83;;
24337;SDS011;12457;50.832;4.346;2023-05-17T09:42:06;14.88;;;3.05;;
24337;SDS011;12457;50.832;4.346;2023-05-17T09:44:54;10.98;;;2.65;;
24337;SDS011;12457;50.832;4.346;2023-05-17T09:47:27;9.23;;;2.85;;
24337;SDS011;12457;50.832;4.346;2023-05-17T09:49:55;9.98;;;3.17;;
24337;SDS011;12457;50.832;4.346;2023-05-17T09:52:24;11.32;;;2.75;;
24337;SDS011;12457;50.832;4.346;2023-05-17T09:54:58;9.43;;;2.42;;
24337;SDS011;12457;50.832;4.346;2023-05-17T09:57:25;14.32;;;2.85;;
24337;SDS011;12457;50.832;4.346;2023-05-17T09:59:54;7.95;;;2.67;;
24337;SDS011;12457;50.832;4.346;2023-05-17T10:02:22;9.48;;;2.38;;
24337;SDS011;12457;50.832;4.346;2023-05-17T10:04:56;8.95;;;2.78;;
24337;SDS011;12457;50.832;4.346;2023-05-17T10:07:23;11.00;;;2.47;;
24337;SDS011;12457;50.832;4.346;2023-05-17T10:09:54;10.48;;;3.50;;
24337;SDS011;12457;50.832;4.346;2023-05-17T10:12:21;14.52;;;2.72;;
24337;SDS011;12457;50.832;4.346;2023-05-17T10:14:55;7.18;;;2.03;;
24337;SDS011;12457;50.832;4.346;2023-05-17T10:17:23;7.90;;;2.35;;
24337;SDS011;12457;50.832;4.346;2023-05-17T10:19:53;11.07;;;2.72;;
24337;SDS011;12457;50.832;4.346;2023-05-17T10:22:20;10.27;;;2.40;;
24337;SDS011;12457;50.832;4.346;2023-05-17T10:24:46;12.80;;;2.85;;
24337;SDS011;12457;50.832;4.346;2023-05-17T10:27:15;13.05;;;3.17;;
24337;SDS011;12457;50.832;4.346;2023-05-17T10:29:42;10.32;;;2.75;;
24337;SDS011;12457;50.832;4.346;2023-05-17T10:32:08;12.05;;;2.80;;
24337;SDS011;12457;50.832;4.346;2023-05-17T10:34:37;10.50;;;2.00;;
24337;SDS011;12457;50.832;4.346;2023-05-17T10:37:03;9.02;;;2.75;;
24337;SDS011;12457;50.832;4.346;2023-05-17T10:39:30;10.07;;;2.90;;
24337;SDS011;12457;50.832;4.346;2023-05-17T10:42:02;13.73;;;2.92;;
24337;SDS011;12457;50.832;4.346;2023-05-17T10:44:51;10.07;;;3.10;;
24337;SDS011;12457;50.832;4.346;2023-05-17T10:47:18;7.80;;;2.00;;
24337;SDS011;12457;50.832;4.346;2023-05-17T10:49:46;8.20;;;2.45;;
24337;SDS011;12457;50.832;4.346;2023-05-17T10:52:17;13.98;;;2.08;;
24337;SDS011;12457;50.832;4.346;2023-05-17T10:54:47;6.53;;;2.38;;
24337;SDS011;12457;50.832;4.346;2023-05-17T10:57:32;10.38;;;2.67;;
24337;SDS011;12457;50.832;4.346;2023-05-17T11:00:01;6.63;;;1.95;;
24337;SDS011;12457;50.832;4.346;2023-05-17T11:02:29;13.13;;;2.33;;
24337;SDS011;12457;50.832;4.346;2023-05-17T11:04:56;13.35;;;2.92;;
24337;SDS011;12457;50.832;4.346;2023-05-17T11:12:36;10.88;;;2.30;;
24337;SDS011;12457;50.832;4.346;2023-05-17T11:15:05;8.88;;;2.20;;
24337;SDS011;12457;50.832;4.346;2023-05-17T11:17:33;10.25;;;2.30;;
24337;SDS011;12457;50.832;4.346;2023-05-17T11:25:09;11.38;;;2.03;;
24337;SDS011;12457;50.832;4.346;2023-05-17T11:27:37;7.15;;;2.30;;
24337;SDS011;12457;50.832;4.346;2023-05-17T11:30:29;11.55;;;2.75;;
24337;SDS011;12457;50.832;4.346;2023-05-17T11:33:05;9.35;;;1.98;;
24337;SDS011;12457;50.832;4.346;2023-05-17T11:35:32;10.18;;;2.15;;
24337;SDS011;12457;50.832;4.346;2023-05-17T11:40:54;7.78;;;2.45;;
24337;SDS011;12457;50.832;4.346;2023-05-17T11:43:24;15.57;;;2.22;;
24337;SDS011;12457;50.832;4.346;2023-05-17T11:45:55;10.13;;;2.08;;
24337;SDS011;12457;50.832;4.346;2023-05-17T11:48:26;6.60;;;1.73;;
24337;SDS011;12457;50.832;4.346;2023-05-17T11:50:55;11.02;;;1.40;;
24337;SDS011;12457;50.832;4.346;2023-05-17T11:53:23;10.30;;;1.95;;
24337;SDS011;12457;50.832;4.346;2023-05-17T11:55:49;7.50;;;1.90;;
24337;SDS011;12457;50.832;4.346;2023-05-17T11:58:19;8.32;;;1.65;;
24337;SDS011;12457;50.832;4.346;2023-05-17T12:00:52;8.25;;;1.77;;
24337;SDS011;12457;50.832;4.346;2023-05-17T12:03:29;10.98;;;1.70;;
24337;SDS011;12457;50.832;4.346;2023-05-17T12:06:09;5.63;;;1.50;;
24337;SDS011;12457;50.832;4.346;2023-05-17T12:08:37;7.55;;;1.70;;
24337;SDS011;12457;50.832;4.346;2023-05-17T12:11:05;11.25;;;2.47;;
24337;SDS011;12457;50.832;4.346;2023-05-17T12:13:32;6.40;;;1.50;;
24337;SDS011;12457;50.832;4.346;2023-05-17T12:16:00;6.28;;;1.80;;
24337;SDS011;12457;50.832;4.346;2023-05-17T12:18:33;8.98;;;2.38;;
24337;SDS011;12457;50.832;4.346;2023-05-17T12:21:03;11.40;;;1.75;;
24337;SDS011;12457;50.832;4.346;2023-05-17T12:23:36;9.60;;;1.98;;
24337;SDS011;12457;50.832;4.346;2023-05-17T12:28:37;10.70;;;2.30;;
24337;SDS011;12457;50.832;4.346;2023-05-17T12:31:07;6.88;;;2.05;;
24337;SDS011;12457;50.832;4.346;2023-05-17T12:33:44;6.85;;;1.70;;
24337;SDS011;12457;50.832;4.346;2023-05-17T12:36:12;8.05;;;2.03;;
24337;SDS011;12457;50.832;4.346;2023-05-17T12:38:39;6.93;;;1.75;;
24337;SDS011;12457;50.832;4.346;2023-05-17T12:41:06;8.68;;;2.10;;
24337;SDS011;12457;50.832;4.346;2023-05-17T12:43:33;4.05;;;1.27;;
24337;SDS011;12457;50.832;4.346;2023-05-17T12:46:01;7.45;;;1.50;;
24337;SDS011;12457;50.832;4.346;2023-05-17T12:48:31;6.95;;;1.83;;
24337;SDS011;12457;50.832;4.346;2023-05-17T12:51:08;9.10;;;2.13;;
24337;SDS011;12457;50.832;4.346;2023-05-17T12:53:54;10.00;;;1.65;;
24337;SDS011;12457;50.832;4.346;2023-05-17T12:59:09;5.47;;;1.55;;
24337;SDS011;12457;50.832;4.346;2023-05-17T13:01:56;12.50;;;2.40;;
24337;SDS011;12457;50.832;4.346;2023-05-17T13:04:31;7.22;;;2.13;;
24337;SDS011;12457;50.832;4.346;2023-05-17T13:07:01;9.77;;;2.10;;
24337;SDS011;12457;50.832;4.346;2023-05-17T13:09:31;5.32;;;1.95;;
24337;SDS011;12457;50.832;4.346;2023-05-17T13:17:12;6.85;;;1.85;;
24337;SDS011;12457;50.832;4.346;2023-05-17T13:19:45;7.10;;;1.60;;
24337;SDS011;12457;50.832;4.346;2023-05-17T13:22:11;10.73;;;1.85;;
24337;SDS011;12457;50.832;4.346;2023-05-17T13:24:37;10.55;;;2.15;;
24337;SDS011;12457;50.832;4.346;2023-05-17T13:27:04;10.90;;;2.30;;
24337;SDS011;12457;50.832;4.346;2023-05-17T13:29:32;7.13;;;3.42;;
24337;SDS011;12457;50.832;4.346;2023-05-17T13:32:01;9.18;;;2.10;;
24337;SDS011;12457;50.832;4.346;2023-05-17T13:34:27;4.75;;;1.50;;
24337;SDS011;12457;50.832;4.346;2023-05-17T13:36:53;5.55;;;1.58;;
24337;SDS011;12457;50.832;4.346;2023-05-17T13:39:21;9.20;;;2.05;;
24337;SDS011;12457;50.832;4.346;2023-05-17T13:41:47;10.52;;;1.67;;
24337;SDS011;12457;50.832;4.346;2023-05-17T13:44:15;9.88;;;1.80;;
24337;SDS011;12457;50.832;4.346;2023-05-17T13:46:41;5.28;;;1.77;;
24337;SDS011;12457;50.832;4.346;2023-05-17T13:49:07;8.45;;;2.28;;
24337;SDS011;12457;50.832;4.346;2023-05-17T13:51:33;6.32;;;2.08;;
24337;SDS011;12457;50.832;4.346;2023-05-17T13:53:59;9.10;;;1.42;;
24337;SDS011;12457;50.832;4.346;2023-05-17T13:56:26;9.95;;;1.63;;
24337;SDS011;12457;50.832;4.346;2023-05-17T13:58:51;4.10;;;1.35;;
24337;SDS011;12457;50.832;4.346;2023-05-17T14:01:17;4.10;;;1.75;;
24337;SDS011;12457;50.832;4.346;2023-05-17T14:03:43;4.55;;;1.63;;
24337;SDS011;12457;50.832;4.346;2023-05-17T14:06:10;3.75;;;1.42;;
24337;SDS011;12457;50.832;4.346;2023-05-17T14:08:36;4.50;;;1.60;;
24337;SDS011;12457;50.832;4.346;2023-05-17T14:11:01;4.07;;;1.67;;
24337;SDS011;12457;50.832;4.346;2023-05-17T14:13:27;10.45;;;1.90;;
24337;SDS011;12457;50.832;4.346;2023-05-17T14:15:53;6.05;;;1.38;;
24337;SDS011;12457;50.832;4.346;2023-05-17T14:18:19;4.78;;;1.55;;
24337;SDS011;12457;50.832;4.346;2023-05-17T14:20:45;13.88;;;2.63;;
24337;SDS011;12457;50.832;4.346;2023-05-17T14:23:11;9.95;;;2.40;;
24337;SDS011;12457;50.832;4.346;2023-05-17T14:25:37;4.55;;;1.70;;
24337;SDS011;12457;50.832;4.346;2023-05-17T14:28:05;5.13;;;1.40;;
24337;SDS011;12457;50.832;4.346;2023-05-17T14:30:31;8.95;;;1.85;;
24337;SDS011;12457;50.832;4.346;2023-05-17T14:32:57;18.67;;;2.58;;
24337;SDS011;12457;50.832;4.346;2023-05-17T14:35:23;8.85;;;2.15;;
24337;SDS011;12457;50.832;4.346;2023-05-17T14:37:49;9.00;;;2.13;;
24337;SDS011;12457;50.832;4.346;2023-05-17T14:40:15;10.52;;;1.58;;
24337;SDS011;12457;50.832;4.346;2023-05-17T14:42:42;4.85;;;1.50;;
24337;SDS011;12457;50.832;4.346;2023-05-17T14:45:08;8.93;;;1.55;;
24337;SDS011;12457;50.832;4.346;2023-05-17T14:47:52;7.13;;;2.08;;
24337;SDS011;12457;50.832;4.346;2023-05-17T14:50:18;7.20;;;1.77;;
24337;SDS011;12457;50.832;4.346;2023-05-17T14:52:43;4.82;;;1.25;;
24337;SDS011;12457;50.832;4.346;2023-05-17T14:55:09;7.97;;;2.15;;
24337;SDS011;12457;50.832;4.346;2023-05-17T14:57:36;5.43;;;1.50;;
24337;SDS011;12457;50.832;4.346;2023-05-17T15:00:04;7.80;;;1.77;;
24337;SDS011;12457;50.832;4.346;2023-05-17T15:02:34;9.15;;;1.85;;
24337;SDS011;12457;50.832;4.346;2023-05-17T15:05:01;9.68;;;1.70;;
24337;SDS011;12457;50.832;4.346;2023-05-17T15:07:30;5.63;;;1.48;;
24337;SDS011;12457;50.832;4.346;2023-05-17T15:09:57;5.65;;;1.67;;
24337;SDS011;12457;50.832;4.346;2023-05-17T15:12:23;7.05;;;1.80;;
24337;SDS011;12457;50.832;4.346;2023-05-17T15:14:49;9.27;;;1.70;;
24337;SDS011;12457;50.832;4.346;2023-05-17T15:17:15;7.55;;;1.48;;
24337;SDS011;12457;50.832;4.346;2023-05-17T15:19:41;6.90;;;2.10;;
24337;SDS011;12457;50.832;4.346;2023-05-17T15:22:07;5.50;;;2.10;;
24337;SDS011;12457;50.832;4.346;2023-05-17T15:24:34;6.00;;;1.75;;
24337;SDS011;12457;50.832;4.346;2023-05-17T15:27:01;7.30;;;2.25;;